Time;durP1;ratioP1;P1;durP2;ratioP2;P2;SDS_P1;SDS_P2;PMS_P1;PMS_P2;Temp;Humidity;BMP_temperature;BMP_pressure;BME280_temperature;BME280_humidity;BME280_pressure;Samples;Min_cycle;Max_cycle;Signal;HPM_P1;HPM_P2
2023/04/19 00:01:02;;;;;;;10.73;6.30;;;10.30;99.90;;;10.85;100.00;98815.81;5076990;28;20459;-76
2023/04/19 00:03:34;;;;;;;9.23;7.00;;;10.30;99.90;;;10.81;100.00;98814.50;5074202;28;20472;-76
2023/04/19 00:06:07;;;;;;;11.13;6.13;;;10.30;99.90;;;10.78;100.00;98815.69;5078548;28;20499;-76
2023/04/19 00:08:37;;;;;;;9.10;6.20;;;10.20;99.90;;;10.77;100.00;98815.84;5077074;28;20516;-76
2023/04/19 00:11:07;;;;;;;8.63;6.50;;;10.20;99.90;;;10.75;100.00;98812.59;5078555;28;20519;-75
2023/04/19 00:13:37;;;;;;;9.13;5.90;;;10.10;99.90;;;10.77;100.00;98818.44;5078251;28;20555;-76
2023/04/19 00:16:09;;;;;;;10.30;6.23;;;10.10;99.90;;;10.74;100.00;98817.00;5077829;28;20460;-76
2023/04/19 00:18:41;;;;;;;9.10;6.03;;;10.10;99.90;;;10.79;100.00;98809.47;5077703;28;20542;-76
2023/04/19 00:21:11;;;;;;;10.80;6.33;;;10.10;99.90;;;10.77;100.00;98802.75;5079074;28;20954;-76
2023/04/19 00:23:40;;;;;;;10.83;5.80;;;10.10;99.90;;;10.81;100.00;98806.66;5077369;28;20551;-76
2023/04/19 00:26:10;;;;;;;7.33;5.40;;;10.20;99.90;;;10.79;100.00;98804.22;5078116;28;20456;-76
2023/04/19 00:28:40;;;;;;;7.80;5.70;;;10.30;99.90;;;10.78;100.00;98809.63;5077654;28;20471;-76
2023/04/19 00:31:10;;;;;;;8.07;4.97;;;10.20;99.90;;;10.74;100.00;98803.91;5076755;28;20491;-77
2023/04/19 00:33:42;;;;;;;9.23;5.77;;;10.20;99.90;;;10.74;100.00;98813.56;5077042;28;20467;-76
2023/04/19 00:36:12;;;;;;;8.77;5.40;;;10.10;99.90;;;10.75;100.00;98804.72;5073634;28;20459;-80
2023/04/19 00:38:42;;;;;;;10.20;5.53;;;10.20;99.90;;;10.73;100.00;98810.13;5076544;28;20561;-76
2023/04/19 00:41:11;;;;;;;11.43;5.77;;;10.20;99.90;;;10.72;100.00;98798.06;5074339;28;20500;-76
2023/04/19 00:43:41;;;;;;;8.37;6.20;;;10.10;99.90;;;10.72;100.00;98789.38;5078526;28;20816;-76
2023/04/19 00:46:11;;;;;;;7.47;5.53;;;10.10;99.90;;;10.72;100.00;98799.84;5076780;28;20456;-76
2023/04/19 00:48:42;;;;;;;8.10;5.50;;;10.20;99.90;;;10.71;100.00;98803.44;5076020;28;20965;-76
2023/04/19 00:51:13;;;;;;;10.90;5.93;;;10.00;99.90;;;10.65;100.00;98797.09;5078095;28;20867;-76
2023/04/19 00:53:44;;;;;;;7.10;5.30;;;10.00;99.90;;;10.68;100.00;98791.53;5078930;28;21091;-76
2023/04/19 00:56:16;;;;;;;8.90;5.57;;;10.00;99.90;;;10.68;100.00;98796.75;5077454;28;20555;-76
2023/04/19 00:58:47;;;;;;;9.53;5.77;;;10.00;99.90;;;10.67;100.00;98789.88;5076914;28;20463;-76
2023/04/19 01:01:17;;;;;;;7.00;4.80;;;10.10;99.90;;;10.65;100.00;98793.66;5075793;28;21415;-76
2023/04/19 01:03:49;;;;;;;7.33;4.53;;;10.10;99.90;;;10.66;100.00;98788.25;5074728;28;20529;-76
2023/04/19 01:06:19;;;;;;;7.97;5.40;;;10.10;99.90;;;10.67;100.00;98783.81;5075086;28;20467;-76
2023/04/19 01:08:50;;;;;;;6.00;4.80;;;10.10;99.90;;;10.67;100.00;98784.66;5074867;28;20476;-76
2023/04/19 01:11:19;;;;;;;8.07;5.40;;;10.10;99.90;;;10.65;100.00;98780.56;5077513;28;21205;-76
2023/04/19 01:13:49;;;;;;;7.40;5.30;;;10.10;99.90;;;10.63;100.00;98782.53;5076093;28;20460;-76
2023/04/19 01:16:20;;;;;;;6.33;4.97;;;10.10;99.90;;;10.56;100.00;98783.22;5075914;28;20460;-76
2023/04/19 01:18:51;;;;;;;8.60;5.53;;;10.00;99.90;;;10.59;100.00;98782.88;5075513;28;20467;-76
2023/04/19 01:21:22;;;;;;;7.67;5.23;;;10.00;99.90;;;10.61;100.00;98774.88;5074813;28;21202;-76
2023/04/19 01:23:54;;;;;;;12.30;4.97;;;9.90;99.90;;;10.65;100.00;98772.72;5076213;28;20951;-76
2023/04/19 01:26:24;;;;;;;7.33;4.47;;;10.00;99.90;;;10.60;100.00;98774.06;5074169;28;20492;-76
2023/04/19 01:28:54;;;;;;;7.50;5.37;;;10.00;99.90;;;10.59;100.00;98772.41;5072857;28;20459;-76
2023/04/19 01:31:23;;;;;;;10.53;5.77;;;10.10;99.90;;;10.58;100.00;98768.19;5075141;28;21153;-75
2023/04/19 01:33:52;;;;;;;7.17;4.93;;;10.00;99.90;;;10.60;100.00;98768.81;5075211;28;20490;-76
2023/04/19 01:36:22;;;;;;;9.07;4.80;;;10.10;99.90;;;10.60;100.00;98768.81;5075985;28;20534;-76
2023/04/19 01:38:53;;;;;;;8.93;5.53;;;10.00;99.90;;;10.60;100.00;98763.59;5075274;28;20537;-76
2023/04/19 01:41:25;;;;;;;8.77;4.40;;;10.10;99.90;;;10.59;100.00;98767.19;5075570;28;20890;-76
2023/04/19 01:43:56;;;;;;;6.87;5.03;;;10.00;99.90;;;10.58;100.00;98764.75;5074437;28;20544;-76
2023/04/19 01:46:25;;;;;;;8.50;4.97;;;10.00;99.90;;;10.62;100.00;98757.38;5074690;28;20468;-76
2023/04/19 01:48:55;;;;;;;9.50;5.23;;;10.00;99.90;;;10.63;100.00;98761.59;5077280;28;20472;-76
2023/04/19 01:51:25;;;;;;;6.53;4.67;;;10.00;99.90;;;10.64;100.00;98760.63;5075893;28;20524;-76
2023/04/19 01:53:57;;;;;;;9.10;5.50;;;10.00;99.90;;;10.64;100.00;98750.16;5075194;28;20550;-76
2023/04/19 01:56:27;;;;;;;10.53;5.60;;;10.10;99.90;;;10.63;100.00;98745.91;5076379;28;21269;-76
2023/04/19 01:58:57;;;;;;;6.77;4.67;;;10.00;99.90;;;10.64;100.00;98752.78;5081034;28;20545;-76
2023/04/19 02:01:28;;;;;;;7.83;4.87;;;10.10;99.90;;;10.60;100.00;98747.06;5079361;28;20490;-76
2023/04/19 02:03:58;;;;;;;6.67;4.97;;;10.00;99.90;;;10.59;100.00;98745.44;5077761;28;20481;-76
2023/04/19 02:06:29;;;;;;;5.13;4.63;;;10.00;99.90;;;10.59;100.00;98741.03;5079073;28;20452;-76
2023/04/19 02:08:59;;;;;;;7.90;4.40;;;9.90;99.90;;;10.59;100.00;98741.03;5077944;28;20487;-76
2023/04/19 02:11:30;;;;;;;6.13;4.17;;;9.90;99.90;;;10.58;100.00;98734.19;5077993;28;20499;-76
2023/04/19 02:13:59;;;;;;;6.60;4.73;;;9.90;99.90;;;10.53;100.00;98731.25;5077727;28;20463;-76
2023/04/19 02:16:30;;;;;;;8.17;4.90;;;10.00;99.90;;;10.55;100.00;98731.09;5080702;28;20604;-76
2023/04/19 02:19:04;;;;;;;6.13;4.90;;;9.90;99.90;;;10.54;100.00;98734.69;5079865;28;20460;-76
2023/04/19 02:21:34;;;;;;;6.80;4.30;;;9.90;99.90;;;10.54;100.00;98732.88;5080255;28;20850;-76
2023/04/19 02:24:05;;;;;;;7.03;3.80;;;9.90;99.90;;;10.59;100.00;98734.97;5080861;28;20825;-76
2023/04/19 02:26:35;;;;;;;5.90;4.07;;;9.90;99.90;;;10.55;100.00;98734.50;5078488;28;20465;-76
2023/04/19 02:29:06;;;;;;;5.13;4.30;;;10.00;99.90;;;10.57;100.00;98724.69;5079634;28;20480;-76
2023/04/19 02:31:37;;;;;;;5.83;4.10;;;9.90;99.90;;;10.51;100.00;98733.22;5079829;28;20574;-76
2023/04/19 02:34:07;;;;;;;9.10;4.50;;;9.90;99.90;;;10.54;100.00;98738.13;5076837;28;21052;-76
2023/04/19 02:36:38;;;;;;;6.30;4.50;;;9.90;99.90;;;10.56;100.00;98735.31;5079629;28;21039;-76
2023/04/19 02:39:09;;;;;;;5.93;3.60;;;10.00;99.90;;;10.52;100.00;98727.00;5079175;28;20483;-76
2023/04/19 02:41:40;;;;;;;6.10;4.63;;;9.90;99.90;;;10.53;100.00;98731.25;5080673;28;20463;-76
2023/04/19 02:44:10;;;;;;;5.97;4.10;;;9.90;99.90;;;10.54;100.00;98732.06;5080464;28;20485;-76
2023/04/19 02:46:39;;;;;;;10.13;4.33;;;9.90;99.90;;;10.53;100.00;98728.63;5079354;28;20468;-76
2023/04/19 02:49:10;;;;;;;6.93;4.70;;;9.90;99.90;;;10.55;100.00;98729.28;5079148;28;20826;-76
2023/04/19 02:51:41;;;;;;;6.47;4.40;;;9.90;99.90;;;10.57;100.00;98726.50;5075732;28;20552;-76
2023/04/19 02:54:12;;;;;;;12.70;5.07;;;9.90;99.90;;;10.55;100.00;98731.88;5077430;28;20471;-76
2023/04/19 02:56:43;;;;;;;6.30;4.40;;;9.90;99.90;;;10.54;100.00;98727.66;5075118;28;20546;-76
2023/04/19 02:59:13;;;;;;;10.17;4.70;;;10.00;99.90;;;10.54;100.00;98726.84;5072152;28;20486;-76
2023/04/19 03:01:42;;;;;;;6.70;4.13;;;9.80;99.90;;;10.57;100.00;98726.50;5075235;28;20475;-76
2023/04/19 03:04:12;;;;;;;5.90;4.13;;;9.90;99.90;;;10.54;100.00;98729.47;5073141;28;21481;-77
2023/04/19 03:06:44;;;;;;;8.97;4.67;;;9.90;99.90;;;10.49;100.00;98722.13;5072182;28;20456;-76
2023/04/19 03:09:15;;;;;;;5.73;4.70;;;9.90;99.90;;;10.48;100.00;98723.09;5075050;28;20486;-76
2023/04/19 03:11:45;;;;;;;8.10;5.40;;;9.80;99.90;;;10.47;100.00;98721.47;5072366;28;20585;-76
2023/04/19 03:14:15;;;;;;;8.00;4.67;;;9.80;99.90;;;10.44;100.00;98721.00;5071320;28;20465;-76
2023/04/19 03:16:46;;;;;;;7.73;4.83;;;9.80;99.90;;;10.46;100.00;98722.44;5076572;28;20506;-76
2023/04/19 03:19:16;;;;;;;7.07;4.40;;;9.90;99.90;;;10.44;100.00;98711.38;5072821;28;20464;-79
2023/04/19 03:21:47;;;;;;;13.17;5.50;;;9.90;99.90;;;10.45;100.00;98717.38;5070696;28;20585;-76
2023/04/19 03:24:20;;;;;;;7.00;5.00;;;9.90;99.90;;;10.41;100.00;98716.91;5073183;28;20589;-76
2023/04/19 03:26:50;;;;;;;5.83;4.50;;;9.80;99.90;;;10.43;100.00;98720.19;5071150;28;20459;-76
2023/04/19 03:29:22;;;;;;;5.60;4.07;;;9.80;99.90;;;10.39;100.00;98715.44;5071113;28;20471;-76
2023/04/19 03:31:52;;;;;;;7.00;5.13;;;9.70;99.90;;;10.39;100.00;98715.44;5071646;28;20563;-76
2023/04/19 03:34:22;;;;;;;8.17;4.40;;;9.70;99.90;;;10.39;100.00;98718.88;5072098;28;20463;-76
2023/04/19 03:36:52;;;;;;;6.07;4.70;;;9.80;99.90;;;10.34;100.00;98705.53;5074646;28;20558;-76
2023/04/19 03:39:23;;;;;;;6.00;4.80;;;9.70;99.90;;;10.37;100.00;98710.41;5072765;28;20515;-76
2023/04/19 03:41:53;;;;;;;4.80;4.03;;;9.70;99.90;;;10.41;100.00;98709.06;5073439;28;20551;-76
2023/04/19 03:44:23;;;;;;;7.33;4.90;;;9.80;99.90;;;10.42;100.00;98708.09;5070931;28;20464;-76
2023/04/19 03:46:53;;;;;;;5.67;3.93;;;9.70;99.90;;;10.45;100.00;98707.75;5074010;28;20460;-76
2023/04/19 03:49:24;;;;;;;8.77;4.87;;;9.80;99.90;;;10.43;100.00;98694.03;5072208;28;20538;-76
2023/04/19 03:51:55;;;;;;;11.07;4.80;;;9.70;99.90;;;10.44;100.00;98694.84;5071165;28;20546;-77
2023/04/19 03:54:27;;;;;;;9.00;4.40;;;9.70;99.90;;;10.45;100.00;98689.44;5072245;28;23638;-76
2023/04/19 03:56:58;;;;;;;4.43;3.70;;;9.80;99.90;;;10.46;100.00;98685.84;5068771;28;20810;-76
2023/04/19 03:59:28;;;;;;;5.87;4.17;;;9.90;99.90;;;10.43;100.00;98678.34;5070948;28;20466;-76
2023/04/19 04:01:59;;;;;;;6.33;4.40;;;9.90;99.90;;;10.38;100.00;98687.66;5071993;28;20462;-76
2023/04/19 04:04:29;;;;;;;7.30;4.90;;;9.80;99.90;;;10.40;100.00;98688.34;5072855;28;20899;-76
2023/04/19 04:07:00;;;;;;;8.00;4.70;;;9.80;99.90;;;10.42;100.00;98689.78;5074491;28;20486;-76
2023/04/19 04:09:32;;;;;;;5.47;4.30;;;9.90;99.90;;;10.39;100.00;98695.34;5071834;28;20494;-76
2023/04/19 04:12:02;;;;;;;5.70;4.87;;;9.80;99.90;;;10.33;100.00;98690.00;5074806;28;20546;-76
2023/04/19 04:14:32;;;;;;;7.53;4.20;;;9.70;99.90;;;10.32;100.00;98686.56;5076442;28;20470;-76
2023/04/19 04:17:02;;;;;;;9.83;5.50;;;9.70;99.90;;;10.33;100.00;98692.59;5075028;28;20467;-77
2023/04/19 04:19:33;;;;;;;6.37;4.30;;;9.70;99.90;;;10.31;100.00;98691.97;5076449;28;20510;-76
2023/04/19 04:22:04;;;;;;;6.70;4.50;;;9.60;99.90;;;10.31;100.00;98694.59;5070811;28;21225;-76
2023/04/19 04:24:41;;;;;;;6.67;5.23;;;9.60;99.90;;;10.34;100.00;98695.06;5075862;28;20520;-76
2023/04/19 04:27:11;;;;;;;7.70;5.23;;;9.70;99.90;;;10.35;100.00;98690.63;5076757;28;21009;-76
2023/04/19 04:29:42;;;;;;;6.83;5.50;;;9.70;99.90;;;10.35;100.00;98685.41;5074698;28;22259;-76
2023/04/19 04:32:13;;;;;;;41.50;23.70;;;9.70;99.90;;;10.40;100.00;98688.34;5075207;28;20545;-75
2023/04/19 04:34:43;;;;;;;8.80;5.40;;;9.70;99.90;;;10.39;100.00;98692.75;5074100;28;20464;-76
2023/04/19 04:37:13;;;;;;;10.33;5.00;;;9.80;99.90;;;10.40;100.00;98699.59;5076880;28;20459;-75
2023/04/19 04:39:44;;;;;;;6.30;4.50;;;9.80;99.90;;;10.39;100.00;98703.19;5078388;28;20490;-76
2023/04/19 04:42:14;;;;;;;6.73;4.90;;;9.80;99.90;;;10.37;100.00;98699.13;5076395;28;20503;-76
2023/04/19 04:44:46;;;;;;;6.63;4.57;;;9.80;99.90;;;10.37;100.00;98692.09;5079349;28;21344;-76
2023/04/19 04:47:15;;;;;;;6.33;3.93;;;9.70;99.90;;;10.35;100.00;98698.47;5075822;28;20852;-76
2023/04/19 04:49:45;;;;;;;7.40;4.70;;;9.70;99.90;;;10.38;100.00;98693.72;5075112;28;20459;-76
2023/04/19 04:52:16;;;;;;;6.90;4.20;;;9.70;99.90;;;10.39;100.00;98694.53;5073543;28;22342;-76
2023/04/19 04:54:46;;;;;;;28.13;15.27;;;9.60;99.90;;;10.41;100.00;98696.00;5073824;28;21082;-76
2023/04/19 04:57:15;;;;;;;9.47;5.07;;;9.70;99.90;;;10.43;100.00;98695.84;5075839;28;20459;-76
2023/04/19 04:59:46;;;;;;;17.63;4.13;;;9.70;99.90;;;10.44;100.00;98700.91;5074224;28;20455;-76
2023/04/19 05:02:17;;;;;;;13.40;4.63;;;9.80;99.90;;;10.44;100.00;98702.69;5074628;28;20468;-76
2023/04/19 05:04:46;;;;;;;6.57;4.27;;;9.80;99.90;;;10.40;100.00;98699.59;5074819;28;20554;-76
2023/04/19 05:07:16;;;;;;;5.70;4.40;;;9.90;99.90;;;10.38;100.00;98693.72;5074767;28;20467;-76
2023/04/19 05:09:47;;;;;;;7.70;4.40;;;9.80;99.90;;;10.40;100.00;98693.56;5077313;28;20462;-76
2023/04/19 05:12:16;;;;;;;7.10;3.83;;;9.70;99.90;;;10.42;100.00;98700.25;5074929;28;20490;-76
2023/04/19 05:14:47;;;;;;;5.43;4.40;;;9.70;99.90;;;10.45;100.00;98697.28;5075613;28;20471;-75
2023/04/19 05:17:17;;;;;;;5.20;4.10;;;9.70;99.90;;;10.45;100.00;98699.06;5075178;28;20986;-76
2023/04/19 05:19:47;;;;;;;8.10;4.90;;;9.70;99.90;;;10.44;100.00;98706.13;5074952;28;20461;-76
2023/04/19 05:22:17;;;;;;;5.40;4.37;;;9.70;99.90;;;10.47;100.00;98705.78;5074772;28;20520;-75
2023/04/19 05:24:49;;;;;;;11.57;5.07;;;9.80;99.90;;;10.44;100.00;98703.53;5075889;28;20520;-76
2023/04/19 05:27:17;;;;;;;7.40;4.30;;;9.80;99.90;;;10.44;100.00;98711.38;5074984;28;20535;-76
2023/04/19 05:29:45;;;;;;;6.03;5.00;;;9.80;99.90;;;10.46;100.00;98709.38;5073177;28;20577;-75
2023/04/19 05:32:15;;;;;;;9.50;4.40;;;9.70;99.90;;;10.51;100.00;98701.03;5076241;28;20471;-75
2023/04/19 05:34:46;;;;;;;6.07;4.50;;;9.80;99.90;;;10.51;100.00;98708.88;5079657;28;21027;-76
2023/04/19 05:37:16;;;;;;;12.33;5.10;;;9.90;99.90;;;10.45;100.00;98699.06;5078544;28;20513;-76
2023/04/19 05:39:46;;;;;;;7.70;4.53;;;9.90;99.90;;;10.46;100.00;98704.16;5078647;28;20566;-76
2023/04/19 05:42:16;;;;;;;6.67;3.93;;;10.00;99.90;;;10.49;100.00;98703.00;5077037;28;21223;-76
2023/04/19 05:44:45;;;;;;;8.00;5.00;;;9.90;99.90;;;10.48;100.00;98704.78;5078428;28;20486;-76
2023/04/19 05:47:16;;;;;;;8.43;4.43;;;9.90;99.90;;;10.45;100.00;98699.91;5078954;28;20937;-76
2023/04/19 05:49:46;;;;;;;8.60;5.07;;;9.80;99.90;;;10.47;100.00;98711.03;5078360;28;20463;-76
2023/04/19 05:52:15;;;;;;;7.30;5.20;;;9.80;99.90;;;10.47;100.00;98705.78;5076780;28;20467;-79
2023/04/19 05:54:44;;;;;;;11.00;6.00;;;9.80;99.90;;;10.46;100.00;98708.56;5070105;28;20492;-76
2023/04/19 05:57:16;;;;;;;7.93;5.07;;;9.80;99.90;;;10.47;100.00;98702.34;5079428;28;20547;-76
2023/04/19 05:59:46;;;;;;;8.40;5.57;;;9.90;99.90;;;10.49;100.00;98703.00;5078320;28;20464;-75
2023/04/19 06:02:16;;;;;;;7.50;4.90;;;9.90;99.90;;;10.51;100.00;98701.84;5078272;28;20521;-75
2023/04/19 06:04:47;;;;;;;5.43;4.30;;;9.80;99.90;;;10.52;100.00;98705.25;5076722;28;20537;-76
2023/04/19 06:07:16;;;;;;;7.03;4.90;;;9.80;99.90;;;10.56;100.00;98714.41;5078006;28;20499;-76
2023/04/19 06:09:59;;;;;;;7.77;5.20;;;9.80;99.90;;;10.56;100.00;98704.75;5077307;28;20459;-75
2023/04/19 06:12:29;;;;;;;5.90;4.50;;;9.90;99.90;;;10.57;100.00;98710.81;5078571;28;20463;-75
2023/04/19 06:14:59;;;;;;;14.97;5.67;;;9.90;99.90;;;10.56;100.00;98711.78;5078655;28;20508;-75
2023/04/19 06:17:29;;;;;;;7.53;4.53;;;9.90;99.90;;;10.55;100.00;98707.56;5078055;28;20463;-75
2023/04/19 06:19:59;;;;;;;7.13;4.40;;;9.90;99.90;;;10.58;100.00;98713.25;5078863;28;21035;-77
2023/04/19 06:22:28;;;;;;;8.40;5.57;;;9.90;99.90;;;10.62;100.00;98718.16;5078425;28;20498;-75
2023/04/19 06:24:57;;;;;;;8.30;5.00;;;9.90;99.90;;;10.63;100.00;98715.34;5078762;28;20463;-75
2023/04/19 06:27:29;;;;;;;6.30;4.30;;;9.90;99.90;;;10.66;100.00;98720.25;5078686;28;20513;-76
2023/04/19 06:29:59;;;;;;;6.83;4.73;;;9.90;99.90;;;10.66;100.00;98714.19;5077164;28;20497;-76
2023/04/19 06:32:30;;;;;;;11.97;5.93;;;9.90;99.90;;;10.67;100.00;98711.41;5076887;28;20475;-76
2023/04/19 06:35:01;;;;;;;6.93;5.40;;;9.90;99.90;;;10.69;100.00;98712.03;5077582;28;20489;-75
2023/04/19 06:37:30;;;;;;;7.20;5.17;;;10.00;99.90;;;10.71;100.00;98717.13;5076283;28;20670;-75
2023/04/19 06:40:01;;;;;;;7.30;5.17;;;10.00;99.90;;;10.72;100.00;98713.53;5077189;28;20990;-76
2023/04/19 06:42:33;;;;;;;11.07;4.90;;;10.00;99.90;;;10.74;100.00;98707.13;5076664;28;20470;-76
2023/04/19 06:45:02;;;;;;;5.87;4.30;;;10.10;99.90;;;10.74;100.00;98712.34;5077721;28;20551;-76
2023/04/19 06:47:33;;;;;;;5.17;4.20;;;10.00;99.90;;;10.72;100.00;98716.97;5077136;28;20987;-76
2023/04/19 06:50:05;;;;;;;8.30;5.07;;;10.10;99.90;;;10.76;100.00;98709.59;5076280;28;20638;-76
2023/04/19 06:52:34;;;;;;;11.13;5.83;;;10.20;99.90;;;10.74;100.00;98712.34;5078961;28;21037;-76
2023/04/19 06:55:03;;;;;;;7.67;5.83;;;10.10;99.90;;;10.76;100.00;98715.59;5079575;28;20522;-76
2023/04/19 06:57:33;;;;;;;5.90;5.00;;;10.10;99.90;;;10.76;100.00;98709.59;5076821;28;20467;-76
2023/04/19 07:00:03;;;;;;;10.50;5.30;;;10.20;99.90;;;10.79;100.00;98715.28;5076084;28;20528;-76
2023/04/19 07:02:33;;;;;;;8.10;5.77;;;10.10;99.90;;;10.81;100.00;98702.03;5076971;28;20834;-76
2023/04/19 07:05:03;;;;;;;6.40;4.80;;;10.10;99.90;;;10.84;100.00;98704.28;5078127;28;20499;-76
2023/04/19 07:07:33;;;;;;;8.50;5.83;;;10.20;99.90;;;10.88;100.00;98703.78;5077242;28;20482;-76
2023/04/19 07:10:04;;;;;;;7.60;4.87;;;10.30;99.90;;;10.92;100.00;98704.25;5076430;28;20830;-75
2023/04/19 07:12:35;;;;;;;9.33;5.40;;;10.40;99.90;;;10.92;100.00;98704.25;5077592;28;20512;-76
2023/04/19 07:15:06;;;;;;;9.60;5.97;;;10.30;99.90;;;10.90;100.00;98700.97;5076439;28;20500;-76
2023/04/19 07:17:36;;;;;;;7.23;5.40;;;10.30;99.90;;;10.95;100.00;98706.50;5075811;28;20470;-76
2023/04/19 07:20:10;;;;;;;8.00;5.13;;;10.40;99.90;;;10.99;100.00;98694.72;5077243;28;20467;-76
2023/04/19 07:22:40;;;;;;;10.13;5.23;;;10.40;99.90;;;11.00;100.00;98696.38;5080090;28;20459;-76
2023/04/19 07:25:12;;;;;;;6.90;4.63;;;10.40;99.90;;;11.04;100.00;98687.16;5077534;28;20506;-76
2023/04/19 07:27:42;;;;;;;8.60;5.37;;;10.50;99.90;;;11.03;100.00;98688.97;5077262;28;20475;-76
2023/04/19 07:30:13;;;;;;;7.43;4.63;;;10.50;99.90;;;11.08;100.00;98691.06;5076677;28;20471;-76
2023/04/19 07:32:43;;;;;;;8.50;5.40;;;10.50;99.90;;;11.11;100.00;98685.47;5076894;28;20459;-76
2023/04/19 07:35:13;;;;;;;7.20;4.90;;;10.50;99.90;;;11.13;100.00;98687.91;5076192;28;20500;-75
2023/04/19 07:37:44;;;;;;;7.70;4.90;;;10.50;99.90;;;11.16;100.00;98690.19;5075427;28;20487;-76
2023/04/19 07:40:14;;;;;;;9.67;5.30;;;10.50;99.90;;;11.18;100.00;98694.25;5075500;28;20571;-76
2023/04/19 07:42:45;;;;;;;7.53;5.57;;;10.60;99.90;;;11.18;100.00;98689.00;5076615;28;20536;-76
2023/04/19 07:45:16;;;;;;;6.70;4.83;;;10.60;99.90;;;11.22;100.00;98689.47;5076166;28;20530;-76
2023/04/19 07:47:45;;;;;;;7.23;5.30;;;10.70;99.90;;;11.23;100.00;98678.03;5076949;28;20462;-76
2023/04/19 07:50:15;;;;;;;7.73;5.13;;;10.70;99.90;;;11.27;100.00;98684.53;5078723;28;20487;-76
2023/04/19 07:52:45;;;;;;;10.50;6.60;;;10.70;99.90;;;11.33;100.00;98678.59;5078118;28;20463;-76
2023/04/19 07:55:14;;;;;;;9.33;6.10;;;10.70;99.90;;;11.38;100.00;98677.09;5076743;28;20510;-76
2023/04/19 07:57:47;;;;;;;8.77;5.07;;;10.80;99.90;;;11.40;100.00;98682.97;5075996;28;20473;-76
2023/04/19 08:00:20;;;;;;;6.57;4.73;;;10.70;99.90;;;11.45;100.00;98674.59;5075181;28;20467;-76
2023/04/19 08:02:50;;;;;;;8.10;5.20;;;10.80;99.90;;;11.52;100.00;98671.06;5076406;28;20464;-76
2023/04/19 08:05:22;;;;;;;7.50;4.70;;;10.90;99.90;;;11.52;100.00;98676.28;5078409;28;20470;-78
2023/04/19 08:07:53;;;;;;;10.67;5.80;;;10.90;99.90;;;11.60;100.00;98675.41;5076189;28;20464;-76
2023/04/19 08:10:22;;;;;;;9.13;5.10;;;11.00;99.90;;;11.66;100.00;98671.28;5077311;28;20972;-76
2023/04/19 08:12:53;;;;;;;8.23;5.10;;;11.10;99.90;;;11.67;100.00;98665.03;5073829;28;20472;-76
2023/04/19 08:15:34;;;;;;;8.80;5.47;;;11.20;99.90;;;11.70;100.00;98662.09;5074541;28;20491;-77
2023/04/19 08:18:07;;;;;;;13.47;7.80;;;11.30;99.90;;;11.74;100.00;98663.34;5074705;28;20478;-76
2023/04/19 08:20:41;;;;;;;12.63;5.33;;;11.20;99.90;;;11.78;100.00;98672.50;5077569;28;20504;-76
2023/04/19 08:23:11;;;;;;;9.83;5.30;;;11.20;99.90;;;11.82;100.00;98663.28;5073527;28;20463;-76
2023/04/19 08:25:53;;;;;;;8.63;5.40;;;11.20;99.90;;;11.89;100.00;98664.19;5074517;28;20945;-76
2023/04/19 08:28:24;;;;;;;15.20;9.97;;;11.40;99.90;;;11.91;100.00;98662.19;5075969;28;20476;-74
2023/04/19 08:30:56;;;;;;;10.70;5.80;;;11.40;99.90;;;11.91;100.00;98664.81;5075945;28;21107;-76
2023/04/19 08:33:25;;;;;;;10.13;5.40;;;11.30;99.90;;;11.96;100.00;98663.31;5077712;28;20451;-76
2023/04/19 08:35:56;;;;;;;9.17;5.50;;;11.50;99.90;;;12.00;100.00;98664.56;5076630;28;20489;-76
2023/04/19 08:38:25;;;;;;;8.73;4.67;;;11.50;99.90;;;12.05;100.00;98666.63;5076575;28;20487;-76
2023/04/19 08:40:55;;;;;;;7.87;5.70;;;11.60;99.90;;;12.04;100.00;98665.03;5078403;28;20546;-76
2023/04/19 08:43:32;;;;;;;6.03;4.67;;;11.60;99.90;;;12.07;100.00;98654.19;5079490;28;20520;-76
2023/04/19 08:46:03;;;;;;;7.07;4.97;;;11.60;99.90;;;12.15;100.00;98655.91;5076725;28;20490;-76
2023/04/19 08:48:36;;;;;;;7.13;5.00;;;11.70;99.90;;;12.16;100.00;98653.06;5078749;28;20491;-76
2023/04/19 08:51:07;;;;;;;7.40;4.90;;;11.60;99.90;;;12.22;100.00;98646.31;5077778;28;21055;-76
2023/04/19 08:53:37;;;;;;;6.93;4.93;;;11.70;99.90;;;12.22;100.00;98652.34;5072569;28;20483;-76
2023/04/19 08:56:09;;;;;;;7.63;5.30;;;11.60;99.90;;;12.26;100.00;98652.78;5074897;28;20500;-76
2023/04/19 08:59:00;;;;;;;7.80;5.20;;;11.70;99.90;;;12.32;100.00;98636.34;5075515;28;21055;-76
2023/04/19 09:01:47;;;;;;;6.30;4.70;;;11.90;99.90;;;12.38;100.00;98641.66;5076428;28;20475;-76
2023/04/19 09:04:16;;;;;;;6.87;4.70;;;11.90;99.90;;;12.40;100.00;98637.03;5074632;28;20464;-77
2023/04/19 09:07:07;;;;;;;7.03;5.10;;;11.90;99.90;;;12.46;100.00;98638.13;5073637;28;20447;-76
2023/04/19 09:09:36;;;;;;;7.53;5.20;;;11.90;99.90;;;12.50;100.00;98632.31;5073483;28;21111;-76
2023/04/19 09:12:26;;;;;;;5.93;4.10;;;12.00;99.90;;;12.55;100.00;98637.84;5074697;28;20476;-76
2023/04/19 09:14:58;;;;;;;5.60;4.13;;;12.00;99.90;;;12.59;100.00;98627.78;5074994;28;20502;-76
2023/04/19 09:17:30;;;;;;;7.20;5.07;;;12.00;99.90;;;12.63;100.00;98628.22;5075568;28;20459;-76
2023/04/19 09:20:00;;;;;;;7.60;5.30;;;12.10;99.90;;;12.65;100.00;98629.66;5073592;28;20496;-76
2023/04/19 09:22:30;;;;;;;5.30;4.10;;;12.10;99.90;;;12.66;100.00;98626.03;5075700;28;20468;-76
2023/04/19 09:24:59;;;;;;;16.27;5.70;;;12.00;99.90;;;12.71;100.00;98626.28;5076449;28;20524;-76
2023/04/19 09:27:49;;;;;;;17.10;10.23;;;12.10;99.90;;;12.75;100.00;98621.47;5073888;28;20799;-76
2023/04/19 09:30:25;;;;;;;23.03;13.23;;;12.20;99.90;;;12.74;100.00;98612.00;5071446;28;20559;-76
2023/04/19 09:33:01;;;;;;;9.10;5.93;;;12.10;99.90;;;12.76;100.00;98610.00;5076242;28;20452;-76
2023/04/19 09:35:41;;;;;;;10.60;4.77;;;12.10;99.90;;;12.81;100.00;98608.41;5075383;28;20488;-76
2023/04/19 09:38:11;;;;;;;11.50;4.97;;;12.20;99.90;;;12.85;100.00;98600.97;5075295;28;21047;-76
2023/04/19 09:40:43;;;;;;;8.27;5.10;;;12.20;99.90;;;12.90;100.00;98601.25;5077303;28;20463;-76
2023/04/19 09:43:13;;;;;;;7.87;5.17;;;12.30;99.90;;;12.94;100.00;98597.25;5076140;28;20465;-76
2023/04/19 09:46:05;;;;;;;7.30;5.53;;;12.30;99.90;;;13.01;100.00;98596.31;5075825;28;20471;-76
2023/04/19 09:48:35;;;;;;;6.20;4.03;;;12.30;99.90;;;13.06;100.00;98587.84;5075065;28;20456;-76
2023/04/19 09:51:05;;;;;;;8.23;4.17;;;12.40;99.90;;;13.10;100.00;98584.69;5075066;28;20458;-76
2023/04/19 09:53:44;;;;;;;5.50;4.07;;;12.50;99.90;;;13.09;100.00;98584.88;5075529;28;20544;-76
2023/04/19 09:56:14;;;;;;;5.10;3.90;;;12.40;99.90;;;13.10;100.00;98578.63;5074023;28;20492;-76
2023/04/19 09:58:45;;;;;;;5.67;3.80;;;12.50;99.90;;;13.19;100.00;98580.09;5074205;28;20451;-76
2023/04/19 10:01:25;;;;;;;6.80;4.47;;;12.60;99.90;;;13.28;100.00;98575.53;5076923;28;21026;-76
2023/04/19 10:03:57;;;;;;;5.40;4.67;;;12.60;99.90;;;13.29;100.00;98575.34;5075369;28;20840;-76
2023/04/19 10:06:44;;;;;;;7.33;4.50;;;12.70;99.90;;;13.38;100.00;98578.63;5075434;28;20959;-76
2023/04/19 10:09:36;;;;;;;7.63;5.30;;;12.80;99.90;;;13.41;100.00;98570.38;5075981;28;20946;-76
2023/04/19 10:12:24;;;;;;;5.37;4.13;;;12.90;99.90;;;13.48;100.00;98572.03;5076262;28;20467;-76
2023/04/19 10:14:57;;;;;;;6.97;4.37;;;13.00;99.90;;;13.51;100.00;98571.66;5074417;28;20463;-76
2023/04/19 10:17:28;;;;;;;7.27;4.80;;;13.00;99.90;;;13.53;100.00;98574.91;5076811;28;20514;-76
2023/04/19 10:20:07;;;;;;;5.30;4.17;;;13.00;99.90;;;13.54;100.00;98565.19;5076743;28;20586;-76
2023/04/19 10:22:38;;;;;;;5.83;4.47;;;13.00;99.90;;;13.53;100.00;98572.28;5081338;28;20462;-76
2023/04/19 10:25:13;;;;;;;12.97;5.10;;;13.00;99.90;;;13.40;100.00;98574.00;5077068;28;20571;-76
2023/04/19 10:27:45;;;;;;;7.53;5.07;;;12.80;99.90;;;13.33;100.00;98568.69;5080587;28;20466;-76
2023/04/19 10:30:19;;;;;;;7.57;5.37;;;12.70;99.90;;;13.32;100.00;98572.34;5078089;28;20463;-76
2023/04/19 10:32:55;;;;;;;9.33;5.30;;;12.70;99.90;;;13.21;100.00;98574.66;5078293;28;20475;-76